createdAt,value
2023-06-13T00:02:02.777Z,12.01
2023-06-13T00:04:31.558Z,12.01
2023-06-13T00:07:01.688Z,11.99
2023-06-13T00:09:29.962Z,11.93
2023-06-13T00:11:57.592Z,11.84
2023-06-13T00:14:25.250Z,11.78
2023-06-13T00:16:51.966Z,11.75
2023-06-13T00:19:20.034Z,11.72
2023-06-13T00:21:47.077Z,11.66
2023-06-13T00:24:14.159Z,11.62
2023-06-13T00:26:40.926Z,11.59
2023-06-13T00:29:07.549Z,11.54
2023-06-13T00:31:34.524Z,11.52
2023-06-13T00:34:02.003Z,11.47
2023-06-13T00:36:28.963Z,11.39
2023-06-13T00:38:58.527Z,11.33
2023-06-13T00:41:25.680Z,11.27
2023-06-13T00:43:52.897Z,11.24
2023-06-13T00:46:30.030Z,11.21
2023-06-13T00:48:59.117Z,11.16
2023-06-13T00:51:29.181Z,11.13
2023-06-13T00:53:58.535Z,11.10
2023-06-13T00:56:30.449Z,11.08
2023-06-13T00:59:01.626Z,11.03
2023-06-13T01:01:31.593Z,11.01
2023-06-13T01:04:01.020Z,10.98
2023-06-13T01:06:31.806Z,10.97
2023-06-13T01:09:01.666Z,10.91
2023-06-13T01:11:49.045Z,10.87
2023-06-13T01:14:41.702Z,10.83
2023-06-13T01:17:42.470Z,10.79
2023-06-13T01:20:15.731Z,10.77
2023-06-13T01:22:46.383Z,10.72
2023-06-13T01:25:25.071Z,10.68
2023-06-13T01:27:55.414Z,10.63
2023-06-13T01:30:23.233Z,10.62
2023-06-13T01:32:52.496Z,10.61
2023-06-13T01:35:20.345Z,10.60
2023-06-13T01:37:47.054Z,10.56
2023-06-13T01:40:16.207Z,10.44
2023-06-13T01:42:43.069Z,10.36
2023-06-13T01:45:10.864Z,10.36
2023-06-13T01:47:55.764Z,10.35
2023-06-13T01:50:32.156Z,10.37
2023-06-13T01:53:11.031Z,10.34
2023-06-13T01:55:44.242Z,10.28
2023-06-13T01:58:57.031Z,10.24
2023-06-13T02:01:26.710Z,10.19
2023-06-13T02:03:53.516Z,10.18
2023-06-13T02:06:20.138Z,10.18
2023-06-13T02:08:46.927Z,10.17
2023-06-13T02:11:13.901Z,10.16
2023-06-13T02:13:40.686Z,10.13
2023-06-13T02:16:07.474Z,10.12
2023-06-13T02:18:34.197Z,10.10
2023-06-13T02:21:00.828Z,10.08
2023-06-13T02:23:27.427Z,10.08
2023-06-13T02:25:54.071Z,10.07
2023-06-13T02:28:20.701Z,10.03
2023-06-13T02:30:48.194Z,10.00
2023-06-13T02:33:16.262Z,10.00
2023-06-13T02:35:43.708Z,9.94
2023-06-13T02:38:10.369Z,9.94
2023-06-13T02:40:39.032Z,9.88
2023-06-13T02:43:05.723Z,9.87
2023-06-13T02:45:32.738Z,9.83
2023-06-13T02:47:59.495Z,9.79
2023-06-13T02:50:26.249Z,9.74
2023-06-13T02:52:53.292Z,9.70
2023-06-13T02:55:20.028Z,9.68
2023-06-13T02:57:46.624Z,9.69
2023-06-13T03:00:16.613Z,9.68
2023-06-13T03:02:45.037Z,9.67
2023-06-13T03:05:15.499Z,9.66
2023-06-13T03:07:44.476Z,9.63
2023-06-13T03:10:11.637Z,9.60
2023-06-13T03:12:38.998Z,9.61
2023-06-13T03:15:06.454Z,9.60
2023-06-13T03:17:33.157Z,9.58
2023-06-13T03:20:04.961Z,9.58
2023-06-13T03:22:32.741Z,9.61
2023-06-13T03:25:04.049Z,9.61
2023-06-13T03:27:30.692Z,9.59
2023-06-13T03:29:57.296Z,9.63
2023-06-13T03:32:24.035Z,9.67
2023-06-13T03:34:53.967Z,9.75
2023-06-13T03:37:21.323Z,9.76
2023-06-13T03:39:47.968Z,9.80
2023-06-13T03:42:14.650Z,9.83
2023-06-13T03:44:47.780Z,9.90
2023-06-13T03:47:15.019Z,9.94
2023-06-13T03:49:42.167Z,9.95
2023-06-13T03:52:08.814Z,9.95
2023-06-13T03:54:35.615Z,9.92
2023-06-13T03:57:02.305Z,9.97
2023-06-13T03:59:28.939Z,10.02
2023-06-13T04:01:55.638Z,10.08
2023-06-13T04:04:22.818Z,10.16
2023-06-13T04:06:50.424Z,10.23
2023-06-13T04:09:17.198Z,10.29
2023-06-13T04:11:43.861Z,10.35
2023-06-13T04:14:10.531Z,10.47
2023-06-13T04:16:37.191Z,10.39
2023-06-13T04:19:03.906Z,10.27
2023-06-13T04:21:30.523Z,10.27
2023-06-13T04:23:57.921Z,10.32
2023-06-13T04:26:25.096Z,10.40
2023-06-13T04:28:51.990Z,10.42
2023-06-13T04:31:19.701Z,10.48
2023-06-13T04:33:47.460Z,10.50
2023-06-13T04:36:14.530Z,10.50
2023-06-13T04:38:41.869Z,10.55
2023-06-13T04:41:11.675Z,10.55
2023-06-13T04:43:40.145Z,10.60
2023-06-13T04:46:09.949Z,10.69
2023-06-13T04:48:37.442Z,10.72
2023-06-13T04:51:10.508Z,10.74
2023-06-13T04:53:39.189Z,10.75
2023-06-13T04:56:07.707Z,10.66
2023-06-13T04:58:34.331Z,10.71
2023-06-13T05:01:01.100Z,10.93
2023-06-13T05:03:28.345Z,11.24
2023-06-13T05:05:55.038Z,11.35
2023-06-13T05:08:22.662Z,11.47
2023-06-13T05:10:49.333Z,11.66
2023-06-13T05:13:16.305Z,11.80
2023-06-13T05:15:48.736Z,11.82
2023-06-13T05:18:15.956Z,11.82
2023-06-13T05:20:43.288Z,11.96
2023-06-13T05:23:11.889Z,12.26
2023-06-13T05:25:38.562Z,12.63
2023-06-13T05:28:05.488Z,12.82
2023-06-13T05:30:32.202Z,12.97
2023-06-13T05:32:58.926Z,13.36
2023-06-13T05:35:25.709Z,13.72
2023-06-13T05:37:52.726Z,14.15
2023-06-13T05:40:20.152Z,14.54
2023-06-13T05:42:47.301Z,14.74
2023-06-13T05:45:14.178Z,14.85
2023-06-13T05:47:40.880Z,14.98
2023-06-13T05:50:07.849Z,14.70
2023-06-13T05:52:35.135Z,14.64
2023-06-13T05:55:02.906Z,14.85
2023-06-13T05:57:40.477Z,15.03
2023-06-13T06:00:14.256Z,15.04
2023-06-13T06:02:43.200Z,15.16
2023-06-13T06:05:10.195Z,15.28
2023-06-13T06:07:37.141Z,15.36
2023-06-13T06:10:05.019Z,15.41
2023-06-13T06:12:31.653Z,15.25
2023-06-13T06:14:58.417Z,15.24
2023-06-13T06:17:25.212Z,15.23
2023-06-13T06:19:51.952Z,15.19
2023-06-13T06:22:18.659Z,15.21
2023-06-13T06:24:45.391Z,15.21
2023-06-13T06:27:12.419Z,15.09
2023-06-13T06:29:45.758Z,14.92
2023-06-13T06:32:12.429Z,14.80
2023-06-13T06:34:39.165Z,14.71
2023-06-13T06:37:06.018Z,14.62
2023-06-13T06:39:33.272Z,14.63
2023-06-13T06:41:59.903Z,14.62
2023-06-13T06:44:39.884Z,14.67
2023-06-13T06:47:10.836Z,14.75
2023-06-13T06:49:37.445Z,14.87
2023-06-13T06:52:04.421Z,15.19
2023-06-13T06:54:32.080Z,15.36
2023-06-13T06:56:58.699Z,15.48
2023-06-13T06:59:25.327Z,15.63
2023-06-13T07:01:52.221Z,15.66
2023-06-13T07:04:19.041Z,16.00
2023-06-13T07:06:46.205Z,16.08
2023-06-13T07:09:12.873Z,16.58
2023-06-13T07:11:39.565Z,16.59
2023-06-13T07:14:06.251Z,16.69
2023-06-13T07:16:33.070Z,16.98
2023-06-13T07:18:59.730Z,17.19
2023-06-13T07:21:27.215Z,17.45
2023-06-13T07:24:06.964Z,17.12
2023-06-13T07:26:34.942Z,17.37
2023-06-13T07:29:01.600Z,17.46
2023-06-13T07:31:28.429Z,17.26
2023-06-13T07:33:55.535Z,17.17
2023-06-13T07:36:22.414Z,16.92
2023-06-13T07:38:49.029Z,16.95
2023-06-13T07:41:15.666Z,16.84
2023-06-13T07:43:42.408Z,17.16
2023-06-13T07:46:09.135Z,17.21
2023-06-13T07:48:36.025Z,17.64
2023-06-13T07:51:03.561Z,17.68
2023-06-13T07:53:30.172Z,17.82
2023-06-13T07:55:57.222Z,17.50
2023-06-13T07:58:24.010Z,17.14
2023-06-13T08:00:50.790Z,17.21
2023-06-13T08:03:17.633Z,17.33
2023-06-13T08:05:44.539Z,17.26
2023-06-13T08:08:11.251Z,17.15
2023-06-13T08:10:38.019Z,17.20
2023-06-13T08:13:04.780Z,17.22
2023-06-13T08:15:31.436Z,17.30
2023-06-13T08:17:59.016Z,17.42
2023-06-13T08:20:26.177Z,17.38
2023-06-13T08:22:52.878Z,17.17
2023-06-13T08:25:19.635Z,16.98
2023-06-13T08:27:47.342Z,16.87
2023-06-13T08:30:15.346Z,16.79
2023-06-13T08:32:42.840Z,16.83
2023-06-13T08:35:10.187Z,16.86
2023-06-13T08:37:37.254Z,16.83
2023-06-13T08:40:11.412Z,17.01
2023-06-13T08:42:39.021Z,17.12
2023-06-13T08:45:07.279Z,17.11
2023-06-13T08:47:37.645Z,17.03
2023-06-13T08:50:06.070Z,16.93
2023-06-13T08:52:41.678Z,16.92
2023-06-13T08:55:45.920Z,16.89
2023-06-13T08:58:03.923Z,16.97
2023-06-13T09:00:35.198Z,17.08
2023-06-13T09:03:05.188Z,17.17
2023-06-13T09:05:33.462Z,17.34
2023-06-13T09:08:23.496Z,17.46
2023-06-13T09:10:48.474Z,17.49
2023-06-13T09:13:17.501Z,17.53
2023-06-13T09:15:46.085Z,17.54
2023-06-13T09:18:13.167Z,17.67
2023-06-13T09:20:39.856Z,17.90
2023-06-13T09:23:06.716Z,18.13
2023-06-13T09:25:37.508Z,18.23
2023-06-13T09:28:33.926Z,18.41
2023-06-13T09:31:01.067Z,18.78
2023-06-13T09:33:28.225Z,18.98
2023-06-13T09:35:55.259Z,19.14
2023-06-13T09:38:27.961Z,19.49
2023-06-13T09:40:56.887Z,19.54
2023-06-13T09:43:24.538Z,19.74
2023-06-13T09:45:52.547Z,19.53
2023-06-13T09:48:19.489Z,19.56
2023-06-13T09:50:46.328Z,19.50
2023-06-13T09:53:13.337Z,19.79
2023-06-13T09:55:40.062Z,19.78
2023-06-13T09:58:22.370Z,19.98
2023-06-13T10:01:00.816Z,19.75
2023-06-13T10:03:31.628Z,19.88
2023-06-13T10:06:00.038Z,19.74
2023-06-13T10:08:26.783Z,19.63
2023-06-13T10:11:01.081Z,19.48
2023-06-13T10:13:30.748Z,19.40
2023-06-13T10:15:59.474Z,18.88
2023-06-13T10:18:38.333Z,18.94
2023-06-13T10:21:07.615Z,19.09
2023-06-13T10:23:41.840Z,19.71
2023-06-13T10:26:16.338Z,19.91
2023-06-13T10:28:51.822Z,19.60
2023-06-13T10:31:27.386Z,19.46
2023-06-13T10:34:01.407Z,19.46
2023-06-13T10:37:07.194Z,19.55
2023-06-13T10:40:06.038Z,19.54
2023-06-13T10:42:42.049Z,19.19
2023-06-13T10:45:23.055Z,19.42
2023-06-13T10:47:49.899Z,19.52
2023-06-13T10:50:17.423Z,19.13
2023-06-13T10:52:46.955Z,19.50
2023-06-13T10:55:23.250Z,19.74
2023-06-13T10:57:52.042Z,19.90
2023-06-13T11:00:28.819Z,20.02
2023-06-13T11:03:14.637Z,20.13
2023-06-13T11:05:49.763Z,20.29
2023-06-13T11:08:20.443Z,20.12
2023-06-13T11:10:49.001Z,20.25
2023-06-13T11:13:26.559Z,20.29
2023-06-13T11:15:58.097Z,20.06
2023-06-13T11:18:31.113Z,20.45
2023-06-13T11:20:59.146Z,20.59
2023-06-13T11:23:39.877Z,20.28
2023-06-13T11:26:06.924Z,20.35
2023-06-13T11:28:33.917Z,20.28
2023-06-13T11:31:05.648Z,20.33
2023-06-13T11:33:39.477Z,20.17
2023-06-13T11:36:06.448Z,20.17
2023-06-13T11:38:38.972Z,19.99
2023-06-13T11:41:06.505Z,19.80
2023-06-13T11:43:34.811Z,19.84
2023-06-13T11:46:02.706Z,20.30
2023-06-13T11:48:42.343Z,20.50
2023-06-13T11:51:16.688Z,20.55
2023-06-13T11:53:55.704Z,20.77
2023-06-13T11:56:25.096Z,20.41
2023-06-13T11:58:53.324Z,20.29
2023-06-13T12:01:23.499Z,20.09
2023-06-13T12:03:52.239Z,19.93
2023-06-13T12:06:19.889Z,19.68
2023-06-13T12:08:47.284Z,19.68
2023-06-13T12:11:25.631Z,19.85
2023-06-13T12:13:57.682Z,19.72
2023-06-13T12:16:32.978Z,19.88
2023-06-13T12:19:01.476Z,19.94
2023-06-13T12:21:33.229Z,19.86
2023-06-13T12:24:03.026Z,19.92
2023-06-13T12:26:34.226Z,19.88
2023-06-13T12:29:13.029Z,20.08
2023-06-13T12:31:45.858Z,20.15
2023-06-13T12:34:28.395Z,20.14
2023-06-13T12:37:00.959Z,20.17
2023-06-13T12:39:31.410Z,20.34
2023-06-13T12:42:02.140Z,20.33
2023-06-13T12:44:32.482Z,20.32
2023-06-13T12:47:00.782Z,20.61
2023-06-13T12:49:27.515Z,20.58
2023-06-13T12:51:54.127Z,20.75
2023-06-13T12:54:26.936Z,20.68
2023-06-13T12:57:01.082Z,20.43
2023-06-13T12:59:38.662Z,20.14
2023-06-13T13:02:08.424Z,20.36
2023-06-13T13:04:37.024Z,20.48
2023-06-13T13:07:05.238Z,20.60
2023-06-13T13:09:32.895Z,20.47
2023-06-13T13:12:00.219Z,20.41
2023-06-13T13:14:27.921Z,20.31
2023-06-13T13:16:55.388Z,20.34
2023-06-13T13:19:22.468Z,20.42
2023-06-13T13:21:50.379Z,20.36
2023-06-13T13:24:19.497Z,20.63
2023-06-13T13:26:48.470Z,20.55
2023-06-13T13:29:16.637Z,20.47
2023-06-13T13:31:43.409Z,20.37
2023-06-13T13:34:22.773Z,20.45
2023-06-13T13:36:50.901Z,20.48
2023-06-13T13:39:18.178Z,20.52
2023-06-13T13:41:45.204Z,20.33
2023-06-13T13:44:12.293Z,20.04
2023-06-13T13:46:39.050Z,20.00
2023-06-13T13:49:05.866Z,20.06
2023-06-13T13:51:33.496Z,20.03
2023-06-13T13:54:00.453Z,19.97
2023-06-13T13:56:27.925Z,19.93
2023-06-13T13:58:54.814Z,19.96
2023-06-13T14:01:21.972Z,19.92
2023-06-13T14:03:49.540Z,19.90
2023-06-13T14:06:16.942Z,19.92
2023-06-13T14:08:43.705Z,19.88
2023-06-13T14:11:10.346Z,19.80
2023-06-13T14:13:37.177Z,19.59
2023-06-13T14:16:04.934Z,19.35
2023-06-13T14:18:31.726Z,19.21
2023-06-13T14:20:59.852Z,19.14
2023-06-13T14:23:26.628Z,19.21
2023-06-13T14:25:53.362Z,19.16
2023-06-13T14:28:20.267Z,19.31
2023-06-13T14:30:46.988Z,19.31
2023-06-13T14:33:13.815Z,19.30
2023-06-13T14:35:40.460Z,19.27
2023-06-13T14:38:07.080Z,19.33
2023-06-13T14:40:33.972Z,19.37
2023-06-13T14:43:01.418Z,19.42
2023-06-13T14:45:28.233Z,19.39
2023-06-13T14:47:55.619Z,19.32
2023-06-13T14:50:23.082Z,19.25
2023-06-13T14:52:49.894Z,19.14
2023-06-13T14:55:16.589Z,19.05
2023-06-13T14:57:43.500Z,19.15
2023-06-13T15:00:11.816Z,19.12
2023-06-13T15:02:39.044Z,19.09
2023-06-13T15:05:06.505Z,19.11
2023-06-13T15:07:33.920Z,18.99
2023-06-13T15:10:00.893Z,18.98
2023-06-13T15:12:28.272Z,18.81
2023-06-13T15:14:55.240Z,18.61
2023-06-13T15:17:22.172Z,18.61
2023-06-13T15:19:49.070Z,18.50
2023-06-13T15:22:15.804Z,18.49
2023-06-13T15:24:42.447Z,18.43
2023-06-13T15:27:09.119Z,18.46
2023-06-13T15:29:35.886Z,18.48
2023-06-13T15:32:02.604Z,18.48
2023-06-13T15:34:30.843Z,18.48
2023-06-13T15:36:59.031Z,18.50
2023-06-13T15:39:25.657Z,18.67
2023-06-13T15:41:52.652Z,18.72
2023-06-13T15:44:19.388Z,18.61
2023-06-13T15:46:47.148Z,18.54
2023-06-13T15:49:13.781Z,18.47
2023-06-13T15:51:40.554Z,18.43
2023-06-13T15:54:07.151Z,18.35
2023-06-13T15:56:34.269Z,18.30
2023-06-13T15:59:01.360Z,18.33
2023-06-13T16:01:28.390Z,18.32
2023-06-13T16:03:55.380Z,18.29
2023-06-13T16:06:22.295Z,18.22
2023-06-13T16:08:49.731Z,18.20
2023-06-13T16:11:16.609Z,18.21
2023-06-13T16:13:43.398Z,18.23
2023-06-13T16:16:10.055Z,18.20
2023-06-13T16:18:38.383Z,18.29
2023-06-13T16:21:05.258Z,18.30
2023-06-13T16:23:32.226Z,18.32
2023-06-13T16:25:58.930Z,18.38
2023-06-13T16:28:25.617Z,18.57
2023-06-13T16:30:53.148Z,18.43
2023-06-13T16:33:20.038Z,18.40
2023-06-13T16:35:47.209Z,18.37
2023-06-13T16:38:15.455Z,18.31
2023-06-13T16:40:43.144Z,18.22
2023-06-13T16:43:10.309Z,18.22
2023-06-13T16:45:37.667Z,18.21
2023-06-13T16:48:04.925Z,18.09
2023-06-13T16:50:31.926Z,18.06
2023-06-13T16:53:00.214Z,18.12
2023-06-13T16:55:28.803Z,18.04
2023-06-13T16:57:56.485Z,17.93
2023-06-13T17:00:23.695Z,17.92
2023-06-13T17:02:50.406Z,17.99
2023-06-13T17:05:17.454Z,17.94
2023-06-13T17:07:44.589Z,17.85
2023-06-13T17:10:11.429Z,17.83
2023-06-13T17:12:43.543Z,17.82
2023-06-13T17:15:11.180Z,17.75
2023-06-13T17:17:38.115Z,17.70
2023-06-13T17:20:08.842Z,17.67
2023-06-13T17:22:35.897Z,17.60
2023-06-13T17:25:02.646Z,17.57
2023-06-13T17:27:29.341Z,17.56
2023-06-13T17:29:56.270Z,17.52
2023-06-13T17:32:23.076Z,17.50
2023-06-13T17:34:50.049Z,17.43
2023-06-13T17:37:18.350Z,17.47
2023-06-13T17:39:45.004Z,17.47
2023-06-13T17:42:12.503Z,17.49
2023-06-13T17:44:39.336Z,17.66
2023-06-13T17:47:07.656Z,17.61
2023-06-13T17:49:34.542Z,17.56
2023-06-13T17:52:01.387Z,17.44
2023-06-13T17:54:28.072Z,17.37
2023-06-13T17:56:54.777Z,17.33
2023-06-13T17:59:21.554Z,17.31
2023-06-13T18:01:49.615Z,17.22
2023-06-13T18:04:17.487Z,17.27
2023-06-13T18:06:44.274Z,17.11
2023-06-13T18:09:11.895Z,17.03
2023-06-13T18:11:38.856Z,16.94
2023-06-13T18:14:09.200Z,16.90
2023-06-13T18:16:37.031Z,16.83
2023-06-13T18:19:08.764Z,16.76
2023-06-13T18:21:35.488Z,16.71
2023-06-13T18:24:02.324Z,16.72
2023-06-13T18:26:29.151Z,16.64
2023-06-13T18:28:56.063Z,16.61
2023-06-13T18:31:22.919Z,16.51
2023-06-13T18:33:49.681Z,16.47
2023-06-13T18:36:17.013Z,16.39
2023-06-13T18:38:43.646Z,16.36
2023-06-13T18:41:10.303Z,16.35
2023-06-13T18:43:36.986Z,16.29
2023-06-13T18:46:03.627Z,16.25
2023-06-13T18:48:31.289Z,16.23
2023-06-13T18:50:58.322Z,16.18
2023-06-13T18:53:25.196Z,16.13
2023-06-13T18:55:52.153Z,16.07
2023-06-13T18:58:18.899Z,16.07
2023-06-13T19:00:46.032Z,16.08
2023-06-13T19:03:16.595Z,16.17
2023-06-13T19:05:43.824Z,16.18
2023-06-13T19:08:10.653Z,16.20
2023-06-13T19:10:37.914Z,16.21
2023-06-13T19:13:04.937Z,16.16
2023-06-13T19:15:33.629Z,16.13
2023-06-13T19:18:00.595Z,16.07
2023-06-13T19:20:28.088Z,15.96
2023-06-13T19:22:54.905Z,15.92
2023-06-13T19:25:26.211Z,15.90
2023-06-13T19:27:58.255Z,15.93
2023-06-13T19:30:27.771Z,15.97
2023-06-13T19:32:55.532Z,15.93
2023-06-13T19:35:23.175Z,15.92
2023-06-13T19:37:49.833Z,15.83
2023-06-13T19:40:19.612Z,15.82
2023-06-13T19:42:48.021Z,15.84
2023-06-13T19:45:15.233Z,15.77
2023-06-13T19:47:42.544Z,15.76
2023-06-13T19:50:10.064Z,15.76
2023-06-13T19:52:37.424Z,15.70
2023-06-13T19:55:04.881Z,15.72
2023-06-13T19:57:32.400Z,15.62
2023-06-13T19:59:59.173Z,15.52
2023-06-13T20:02:25.814Z,15.52
2023-06-13T20:04:52.738Z,15.52
2023-06-13T20:07:19.495Z,15.51
2023-06-13T20:09:46.168Z,15.52
2023-06-13T20:12:12.921Z,15.53
2023-06-13T20:14:39.618Z,15.54
2023-06-13T20:17:07.180Z,15.54
2023-06-13T20:19:34.076Z,15.51
2023-06-13T20:22:01.698Z,15.49
2023-06-13T20:24:28.386Z,15.46
2023-06-13T20:26:55.008Z,15.48
2023-06-13T20:29:21.710Z,15.50
2023-06-13T20:31:48.694Z,15.50
2023-06-13T20:34:17.491Z,15.49
2023-06-13T20:36:44.367Z,15.46
2023-06-13T20:39:11.063Z,15.44
2023-06-13T20:41:38.667Z,15.41
2023-06-13T20:44:08.579Z,15.41
2023-06-13T20:46:38.880Z,15.39
2023-06-13T20:49:05.643Z,15.32
2023-06-13T20:51:36.301Z,15.27
2023-06-13T20:54:03.289Z,15.20
2023-06-13T20:56:29.944Z,15.13
2023-06-13T20:58:57.928Z,15.09
2023-06-13T21:01:24.737Z,15.08
2023-06-13T21:03:51.932Z,15.08
2023-06-13T21:06:20.525Z,15.08
2023-06-13T21:08:47.257Z,15.04
2023-06-13T21:11:14.367Z,14.97
2023-06-13T21:13:41.160Z,14.98
2023-06-13T21:16:08.679Z,14.97
2023-06-13T21:18:36.104Z,14.95
2023-06-13T21:21:02.734Z,14.94
2023-06-13T21:23:29.952Z,14.90
2023-06-13T21:25:56.769Z,14.87
2023-06-13T21:28:23.393Z,14.86
2023-06-13T21:30:50.012Z,14.85
2023-06-13T21:33:19.064Z,14.86
2023-06-13T21:35:46.720Z,14.81
2023-06-13T21:38:13.453Z,14.80
2023-06-13T21:40:40.087Z,14.75
2023-06-13T21:43:06.696Z,14.71
2023-06-13T21:45:33.330Z,14.68
2023-06-13T21:48:00.775Z,14.65
2023-06-13T21:50:27.695Z,14.61
2023-06-13T21:52:54.436Z,14.55
2023-06-13T21:55:21.455Z,14.53
2023-06-13T21:57:48.380Z,14.47
2023-06-13T22:00:17.872Z,14.41
2023-06-13T22:02:45.946Z,14.41
2023-06-13T22:05:13.463Z,14.41
2023-06-13T22:07:40.940Z,14.33
2023-06-13T22:10:08.157Z,14.32
2023-06-13T22:12:35.916Z,14.32
2023-06-13T22:15:03.520Z,14.30
2023-06-13T22:17:30.841Z,14.27
2023-06-13T22:20:01.175Z,14.24
2023-06-13T22:22:30.885Z,14.16
2023-06-13T22:24:59.646Z,14.06
2023-06-13T22:27:26.698Z,14.00
2023-06-13T22:29:53.570Z,13.95
2023-06-13T22:32:20.952Z,13.93
2023-06-13T22:34:47.722Z,13.90
2023-06-13T22:37:14.630Z,13.86
2023-06-13T22:39:41.275Z,13.80
2023-06-13T22:42:08.817Z,13.74
2023-06-13T22:44:36.255Z,13.68
2023-06-13T22:47:03.681Z,13.60
2023-06-13T22:49:30.335Z,13.54
2023-06-13T22:51:57.634Z,13.53
2023-06-13T22:54:24.635Z,13.52
2023-06-13T22:56:51.409Z,13.48
2023-06-13T22:59:19.040Z,13.44
2023-06-13T23:01:46.628Z,13.42
2023-06-13T23:04:13.545Z,13.37
2023-06-13T23:06:42.260Z,13.33
2023-06-13T23:09:09.981Z,13.33
2023-06-13T23:11:37.686Z,13.34
2023-06-13T23:14:04.333Z,13.34
2023-06-13T23:16:31.125Z,13.35
2023-06-13T23:18:58.255Z,13.34
2023-06-13T23:21:25.977Z,13.32
2023-06-13T23:23:52.805Z,13.31
2023-06-13T23:26:19.499Z,13.27
2023-06-13T23:28:46.154Z,13.23
2023-06-13T23:31:14.436Z,13.26
2023-06-13T23:33:44.090Z,13.23
2023-06-13T23:36:10.716Z,13.19
2023-06-13T23:38:38.636Z,13.19
2023-06-13T23:41:05.529Z,13.21
2023-06-13T23:43:32.211Z,13.20
2023-06-13T23:46:01.688Z,13.20
2023-06-13T23:48:29.644Z,13.19
2023-06-13T23:50:56.521Z,13.17
2023-06-13T23:53:23.610Z,13.17
2023-06-13T23:55:50.597Z,13.12
2023-06-13T23:58:18.663Z,13.12
